createdAt,value
2023-04-09T00:47:14.406Z,2.70
2023-04-09T00:50:00.580Z,2.60
2023-04-09T00:52:45.943Z,2.90
2023-04-09T00:55:31.447Z,2.40
2023-04-09T00:58:17.069Z,2.90
2023-04-09T01:48:40.545Z,2.40
2023-04-09T01:51:27.347Z,2.92
2023-04-09T01:54:12.766Z,2.70
2023-04-09T01:56:57.838Z,2.80
2023-04-09T01:59:43.004Z,3.10
2023-04-09T02:46:34.514Z,3.08
2023-04-09T02:49:19.887Z,3.30
2023-04-09T02:52:05.235Z,2.90
2023-04-09T02:54:50.614Z,2.80
2023-04-09T02:57:36.348Z,2.78
2023-04-09T03:46:13.084Z,3.00
2023-04-09T03:48:59.136Z,2.83
2023-04-09T03:51:52.553Z,2.90
2023-04-09T03:54:38.381Z,2.90
2023-04-09T03:57:29.766Z,3.00
2023-04-09T04:47:38.554Z,3.10
2023-04-09T04:50:23.871Z,3.17
2023-04-09T04:53:15.835Z,2.80
2023-04-09T04:56:06.472Z,2.95
2023-04-09T04:58:51.573Z,2.80
2023-04-09T05:01:38.974Z,2.80
2023-04-09T05:04:28.164Z,2.80
2023-04-09T05:07:15.518Z,2.65
2023-04-09T05:10:08.543Z,2.83
2023-04-09T05:12:59.363Z,2.85
2023-04-09T05:15:51.639Z,2.65
2023-04-09T05:18:37.238Z,2.77
2023-04-09T05:21:22.126Z,2.63
2023-04-09T05:24:09.563Z,2.85
2023-04-09T05:26:54.506Z,2.78
2023-04-09T05:29:39.884Z,2.70
2023-04-09T05:32:26.906Z,2.93
2023-04-09T05:35:12.899Z,2.70
2023-04-09T05:38:01.058Z,2.90
2023-04-09T05:40:48.897Z,3.03
2023-04-09T05:43:34.341Z,2.60
2023-04-09T05:46:19.921Z,2.80
2023-04-09T05:49:07.676Z,2.67
2023-04-09T05:51:54.693Z,2.83
2023-04-09T05:54:44.623Z,2.80
2023-04-09T05:57:32.938Z,2.53
2023-04-09T06:00:21.787Z,2.60
2023-04-09T06:03:08.998Z,3.10
2023-04-09T06:05:53.940Z,2.50
2023-04-09T06:08:39.021Z,2.80
2023-04-09T06:11:24.251Z,2.80
2023-04-09T06:14:09.202Z,2.67
2023-04-09T06:16:54.122Z,2.83
2023-04-09T06:19:39.857Z,3.00
2023-04-09T06:22:24.667Z,2.90
2023-04-09T06:25:09.624Z,2.63
2023-04-09T06:27:54.822Z,2.70
2023-04-09T06:30:39.537Z,3.08
2023-04-09T06:33:24.858Z,2.78
2023-04-09T06:36:10.812Z,2.90
2023-04-09T06:38:56.257Z,2.65
2023-04-09T06:41:41.339Z,2.97
2023-04-09T06:44:41.383Z,3.25
2023-04-09T06:47:26.420Z,2.75
2023-04-09T06:52:57.222Z,2.80
2023-04-09T06:55:42.159Z,3.00
2023-04-09T06:58:27.454Z,3.00
2023-04-09T07:01:12.796Z,2.83
2023-04-09T07:03:57.923Z,2.88
2023-04-09T07:06:43.604Z,3.40
2023-04-09T07:09:28.546Z,2.70
2023-04-09T07:12:13.782Z,2.70
2023-04-09T07:14:59.359Z,3.08
2023-04-09T07:17:44.464Z,2.88
2023-04-09T07:20:29.827Z,2.88
2023-04-09T07:23:14.705Z,2.80
2023-04-09T07:26:01.816Z,2.90
2023-04-09T07:28:46.894Z,2.70
2023-04-09T07:31:35.286Z,3.08
2023-04-09T07:34:21.613Z,2.80
2023-04-09T07:37:07.121Z,2.73
2023-04-09T07:39:52.288Z,3.08
2023-04-09T07:42:38.969Z,2.88
2023-04-09T07:45:24.309Z,3.00
2023-04-09T07:48:09.702Z,2.78
2023-04-09T07:50:54.469Z,3.03
2023-04-09T07:53:39.317Z,2.70
2023-04-09T07:56:24.238Z,2.60
2023-04-09T07:59:09.591Z,2.70
2023-04-09T08:01:55.027Z,2.42
2023-04-09T08:04:40.473Z,2.53
2023-04-09T08:07:25.795Z,2.60
2023-04-09T08:10:15.105Z,2.80
2023-04-09T08:13:00.346Z,2.85
2023-04-09T08:15:45.338Z,2.85
2023-04-09T08:18:31.218Z,2.50
2023-04-09T08:21:16.657Z,3.00
2023-04-09T08:24:04.490Z,2.60
2023-04-09T08:26:49.861Z,2.40
2023-04-09T08:29:34.976Z,2.50
2023-04-09T08:32:20.164Z,2.63
2023-04-09T08:35:06.299Z,2.95
2023-04-09T08:37:51.062Z,2.90
2023-04-09T08:40:36.162Z,2.47
2023-04-09T08:46:10.340Z,2.80
2023-04-09T08:48:55.738Z,2.47
2023-04-09T08:51:46.188Z,2.63
2023-04-09T08:54:32.077Z,2.35
2023-04-09T08:57:17.632Z,2.80
2023-04-09T09:00:03.516Z,2.70
2023-04-09T09:03:08.294Z,2.90
2023-04-09T09:05:53.476Z,2.75
2023-04-09T09:08:38.335Z,2.60
2023-04-09T09:11:27.107Z,2.70
2023-04-09T09:14:12.718Z,2.40
2023-04-09T09:16:58.264Z,2.85
2023-04-09T09:19:43.452Z,2.53
2023-04-09T09:22:28.344Z,2.58
2023-04-09T09:25:13.796Z,2.60
2023-04-09T09:28:07.232Z,2.60
2023-04-09T09:30:52.558Z,2.90
2023-04-09T09:33:37.792Z,2.80
2023-04-09T09:36:35.538Z,2.58
2023-04-09T09:39:22.087Z,3.05
2023-04-09T09:42:07.880Z,2.47
2023-04-09T09:44:53.631Z,2.90
2023-04-09T09:47:38.660Z,2.88
2023-04-09T09:50:28.495Z,2.92
2023-04-09T09:53:14.141Z,2.90
2023-04-09T09:56:00.059Z,2.83
2023-04-09T09:58:49.992Z,2.88
2023-04-09T10:01:36.603Z,2.78
2023-04-09T10:04:23.553Z,2.92
2023-04-09T10:07:09.071Z,3.20
2023-04-09T10:09:56.358Z,2.70
2023-04-09T10:12:41.889Z,2.88
2023-04-09T10:15:31.007Z,3.05
2023-04-09T10:18:16.433Z,2.80
2023-04-09T10:21:05.713Z,3.00
2023-04-09T10:23:51.745Z,2.90
2023-04-09T10:26:40.209Z,2.95
2023-04-09T10:29:29.163Z,2.75
2023-04-09T10:32:21.067Z,3.10
2023-04-09T10:35:06.924Z,3.58
2023-04-09T10:37:52.197Z,3.00
2023-04-09T10:40:43.521Z,2.78
2023-04-09T10:43:29.961Z,2.92
2023-04-09T10:46:27.464Z,2.85
2023-04-09T10:49:13.668Z,3.03
2023-04-09T10:52:09.507Z,3.10
2023-04-09T10:54:55.940Z,2.70
2023-04-09T10:57:42.862Z,2.70
2023-04-09T11:00:27.907Z,2.92
2023-04-09T11:03:12.907Z,2.92
2023-04-09T11:05:58.406Z,2.97
2023-04-09T11:08:44.365Z,3.35
2023-04-09T11:11:29.375Z,2.80
2023-04-09T11:14:19.388Z,2.40
2023-04-09T11:17:04.572Z,2.83
2023-04-09T11:19:49.616Z,2.90
2023-04-09T11:22:34.449Z,2.75
2023-04-09T11:25:23.162Z,2.72
2023-04-09T11:28:08.691Z,2.83
2023-04-09T11:30:53.517Z,3.03
2023-04-09T11:33:38.911Z,3.33
2023-04-09T11:36:24.015Z,2.70
2023-04-09T11:39:08.936Z,3.00
2023-04-09T11:41:53.761Z,2.55
2023-04-09T11:44:38.531Z,2.70
2023-04-09T11:47:24.125Z,2.80
2023-04-09T11:50:09.612Z,2.88
2023-04-09T11:52:54.737Z,2.88
2023-04-09T11:55:39.577Z,2.85
2023-04-09T11:58:26.255Z,2.72
2023-04-09T12:01:11.313Z,2.93
2023-04-09T12:03:56.389Z,3.00
2023-04-09T12:06:42.587Z,2.80
2023-04-09T12:09:28.125Z,2.90
2023-04-09T12:12:17.936Z,2.97
2023-04-09T12:15:07.769Z,2.70
2023-04-09T12:17:55.946Z,3.10
2023-04-09T12:20:43.512Z,2.88
2023-04-09T12:23:28.420Z,2.72
2023-04-09T12:26:14.619Z,2.70
2023-04-09T12:28:59.726Z,2.30
2023-04-09T12:31:45.362Z,2.97
2023-04-09T12:34:31.036Z,2.83
2023-04-09T12:37:15.995Z,2.60
2023-04-09T12:40:01.318Z,2.80
2023-04-09T12:42:46.661Z,2.60
2023-04-09T12:45:32.079Z,2.40
2023-04-09T12:48:17.449Z,2.90
2023-04-09T12:51:02.652Z,2.83
2023-04-09T12:53:47.945Z,2.85
2023-04-09T12:56:32.743Z,2.40
2023-04-09T12:59:17.699Z,2.97
2023-04-09T13:02:03.295Z,2.60
2023-04-09T13:04:48.764Z,2.50
2023-04-09T13:07:33.801Z,2.42
2023-04-09T13:10:18.639Z,2.90
2023-04-09T13:13:03.565Z,2.70
2023-04-09T13:15:48.419Z,2.65
2023-04-09T13:18:33.263Z,2.72
2023-04-09T13:21:18.846Z,2.53
2023-04-09T13:24:04.352Z,3.00
2023-04-09T13:26:49.437Z,2.60
2023-04-09T13:29:34.174Z,2.45
2023-04-09T13:32:20.986Z,2.53
2023-04-09T13:35:06.215Z,2.72
2023-04-09T13:37:51.240Z,2.80
2023-04-09T13:40:36.114Z,2.80
2023-04-09T13:43:21.178Z,2.60
2023-04-09T13:46:06.605Z,2.17
2023-04-09T13:48:51.952Z,2.67
2023-04-09T13:51:37.256Z,2.63
2023-04-09T13:54:22.175Z,2.60
2023-04-09T13:57:07.186Z,2.65
2023-04-09T13:59:52.540Z,2.80
2023-04-09T14:02:37.500Z,2.47
2023-04-09T14:05:22.805Z,2.50
2023-04-09T14:08:07.628Z,2.25
2023-04-09T14:10:52.603Z,2.60
2023-04-09T14:13:37.454Z,2.50
2023-04-09T14:16:23.725Z,2.20
2023-04-09T14:19:10.064Z,2.60
2023-04-09T14:21:55.626Z,2.40
2023-04-09T14:24:40.831Z,2.50
2023-04-09T14:27:26.369Z,2.40
2023-04-09T14:30:12.318Z,2.70
2023-04-09T14:32:57.414Z,2.20
2023-04-09T14:35:42.883Z,2.53
2023-04-09T14:38:28.370Z,2.60
2023-04-09T14:41:13.617Z,2.40
2023-04-09T14:43:58.423Z,2.40
2023-04-09T14:46:43.603Z,2.27
2023-04-09T14:49:29.079Z,2.63
2023-04-09T14:52:14.693Z,2.28
2023-04-09T14:55:00.043Z,2.67
2023-04-09T14:57:44.996Z,2.75
2023-04-09T15:00:30.144Z,2.17
2023-04-09T15:03:15.354Z,2.20
2023-04-09T15:06:00.632Z,2.88
2023-04-09T15:08:46.126Z,2.10
2023-04-09T15:11:31.564Z,2.25
2023-04-09T15:14:16.934Z,2.40
2023-04-09T15:17:01.875Z,2.35
2023-04-09T15:19:46.778Z,2.20
2023-04-09T15:22:31.644Z,2.42
2023-04-09T15:25:17.248Z,2.33
2023-04-09T15:28:03.167Z,2.10
2023-04-09T15:30:48.374Z,2.42
2023-04-09T15:33:33.441Z,2.42
2023-04-09T15:36:18.656Z,2.15
2023-04-09T15:39:06.562Z,2.38
2023-04-09T15:41:51.352Z,2.50
2023-04-09T15:44:36.327Z,2.40
2023-04-09T15:47:21.286Z,2.40
2023-04-09T15:50:06.981Z,2.25
2023-04-09T15:52:52.396Z,2.25
2023-04-09T15:55:37.264Z,2.27
2023-04-09T15:58:22.666Z,2.30
2023-04-09T16:01:08.090Z,2.40
2023-04-09T16:03:53.758Z,2.38
2023-04-09T16:06:39.353Z,2.00
2023-04-09T16:09:24.127Z,2.03
2023-04-09T16:12:08.943Z,2.35
2023-04-09T16:14:54.745Z,2.03
2023-04-09T16:17:41.233Z,2.15
2023-04-09T16:20:26.787Z,2.20
2023-04-09T16:23:11.876Z,2.37
2023-04-09T16:25:56.753Z,2.28
2023-04-09T16:28:41.811Z,2.35
2023-04-09T16:31:26.813Z,2.25
2023-04-09T16:34:11.620Z,2.00
2023-04-09T16:36:56.724Z,1.90
2023-04-09T16:39:42.318Z,2.40
2023-04-09T16:42:27.453Z,2.10
2023-04-09T16:45:12.741Z,2.40
2023-04-09T16:47:57.665Z,2.50
2023-04-09T16:50:43.063Z,2.13
2023-04-09T16:53:27.930Z,2.25
2023-04-09T16:56:14.196Z,1.77
2023-04-09T16:58:59.703Z,2.10
2023-04-09T17:01:44.779Z,2.25
2023-04-09T17:04:31.639Z,1.80
2023-04-09T17:07:16.891Z,2.08
2023-04-09T17:12:47.324Z,2.22
2023-04-09T17:15:32.161Z,2.20
2023-04-09T17:18:18.189Z,2.10
2023-04-09T17:21:03.637Z,2.30
2023-04-09T17:23:49.017Z,1.90
2023-04-09T17:26:34.692Z,2.13
2023-04-09T17:29:21.200Z,2.33
2023-04-09T17:32:06.562Z,2.20
2023-04-09T17:34:52.384Z,2.10
2023-04-09T17:37:38.606Z,2.15
2023-04-09T17:40:23.821Z,2.45
2023-04-09T17:43:08.709Z,2.10
2023-04-09T17:45:56.995Z,2.40
2023-04-09T17:48:42.805Z,2.15
2023-04-09T17:51:28.735Z,2.20
2023-04-09T17:54:16.621Z,2.10
2023-04-09T17:57:02.366Z,2.05
2023-04-09T17:59:47.459Z,2.27
2023-04-09T18:02:32.767Z,2.30
2023-04-09T18:05:18.428Z,2.20
2023-04-09T18:08:04.114Z,2.03
2023-04-09T18:11:05.039Z,2.15
2023-04-09T18:14:01.205Z,2.13
2023-04-09T18:16:47.250Z,1.90
2023-04-09T18:19:32.676Z,2.10
2023-04-09T18:22:18.213Z,2.15
2023-04-09T18:25:04.554Z,2.30
2023-04-09T18:27:49.650Z,2.40
2023-04-09T18:30:38.548Z,2.15
2023-04-09T18:33:25.660Z,2.20
2023-04-09T18:36:10.985Z,2.13
2023-04-09T18:38:56.307Z,2.10
2023-04-09T18:41:42.344Z,2.10
2023-04-09T18:44:27.557Z,2.05
2023-04-09T18:47:12.767Z,2.28
2023-04-09T18:49:58.588Z,2.10
2023-04-09T18:52:43.540Z,2.20
2023-04-09T18:55:28.452Z,2.17
2023-04-09T18:58:18.724Z,2.08
2023-04-09T19:01:12.835Z,2.13
2023-04-09T19:03:57.749Z,1.88
2023-04-09T19:06:47.332Z,2.10
2023-04-09T19:09:32.784Z,2.10
2023-04-09T19:12:18.892Z,2.22
2023-04-09T19:15:04.761Z,2.20
2023-04-09T19:17:50.738Z,2.10
2023-04-09T19:20:37.754Z,2.10
2023-04-09T19:23:23.275Z,2.03
2023-04-09T19:26:09.678Z,2.10
2023-04-09T19:28:55.209Z,2.10
2023-04-09T19:31:41.397Z,2.03
2023-04-09T19:34:26.449Z,2.08
2023-04-09T19:37:11.797Z,2.33
2023-04-09T19:39:57.953Z,2.30
2023-04-09T19:42:45.360Z,2.10
2023-04-09T19:45:30.186Z,2.30
2023-04-09T19:48:15.006Z,2.22
2023-04-09T19:51:00.413Z,2.43
2023-04-09T19:53:47.444Z,2.20
2023-04-09T19:56:32.929Z,2.30
2023-04-09T19:59:18.412Z,1.85
2023-04-09T20:02:03.623Z,2.70
2023-04-09T20:04:48.956Z,2.57
2023-04-09T20:07:34.035Z,2.42
2023-04-09T20:10:20.005Z,2.17
2023-04-09T20:13:07.293Z,2.40
2023-04-09T20:15:52.854Z,2.50
2023-04-09T20:18:38.027Z,2.20
2023-04-09T20:21:23.355Z,2.30
2023-04-09T20:24:08.664Z,2.10
2023-04-09T20:26:54.434Z,2.30
2023-04-09T20:29:39.800Z,2.20
2023-04-09T20:32:25.183Z,2.40
2023-04-09T20:35:11.080Z,2.35
2023-04-09T20:37:56.420Z,2.10
2023-04-09T20:40:41.943Z,2.22
2023-04-09T20:43:27.312Z,2.47
2023-04-09T20:46:13.738Z,2.50
2023-04-09T20:48:59.329Z,2.40
2023-04-09T20:51:44.835Z,2.30
2023-04-09T20:54:30.819Z,2.15
2023-04-09T20:57:16.088Z,2.50
2023-04-09T21:00:01.467Z,2.40
2023-04-09T21:02:46.796Z,2.50
2023-04-09T21:05:32.446Z,2.80
2023-04-09T21:08:17.337Z,2.40
2023-04-09T21:11:02.850Z,2.38
2023-04-09T21:13:54.437Z,2.33
2023-04-09T21:16:40.452Z,2.65
2023-04-09T21:19:25.758Z,2.63
2023-04-09T21:22:11.101Z,2.45
2023-04-09T21:24:56.361Z,2.65
2023-04-09T21:27:42.112Z,2.50
2023-04-09T21:30:28.013Z,2.33
2023-04-09T21:33:13.211Z,2.65
2023-04-09T21:35:58.558Z,2.70
2023-04-09T21:38:44.049Z,2.40
2023-04-09T21:41:28.858Z,2.30
2023-04-09T21:44:14.366Z,3.10
2023-04-09T21:47:01.361Z,2.72
2023-04-09T21:49:46.529Z,2.40
2023-04-09T21:52:32.304Z,2.60
2023-04-09T21:55:17.463Z,2.23
2023-04-09T21:58:03.487Z,2.60
2023-04-09T22:00:48.555Z,2.30
2023-04-09T22:03:34.977Z,2.95
2023-04-09T22:06:20.435Z,2.78
2023-04-09T22:09:05.915Z,2.70
2023-04-09T22:11:51.363Z,2.72
2023-04-09T22:14:36.436Z,2.90
2023-04-09T22:17:21.411Z,2.70
2023-04-09T22:20:07.214Z,2.92
2023-04-09T22:22:53.543Z,3.00
2023-04-09T22:25:38.740Z,2.70
2023-04-09T22:28:24.108Z,2.55
2023-04-09T22:31:09.733Z,2.97
2023-04-09T22:33:54.985Z,2.97
2023-04-09T22:36:41.381Z,2.90
2023-04-09T22:39:26.805Z,3.15
2023-04-09T22:42:12.628Z,2.88
2023-04-09T22:44:57.730Z,2.92
2023-04-09T22:47:42.927Z,2.90
2023-04-09T22:50:30.790Z,3.00
2023-04-09T22:53:19.216Z,3.05
2023-04-09T22:56:04.725Z,3.25
2023-04-09T22:58:49.725Z,3.35
2023-04-09T23:01:34.770Z,3.20
2023-04-09T23:04:24.104Z,2.80
2023-04-09T23:07:09.339Z,3.00
2023-04-09T23:09:57.179Z,3.40
2023-04-09T23:12:42.774Z,3.20
2023-04-09T23:15:28.420Z,3.17
2023-04-09T23:18:13.770Z,3.00
2023-04-09T23:20:58.542Z,3.10
2023-04-09T23:23:43.677Z,3.15
2023-04-09T23:26:28.511Z,3.42
2023-04-09T23:29:13.543Z,3.33
2023-04-09T23:31:58.957Z,3.33
2023-04-09T23:34:44.172Z,3.28
2023-04-09T23:37:29.695Z,3.13
2023-04-09T23:40:17.789Z,3.30
2023-04-09T23:43:03.112Z,3.05
2023-04-09T23:45:50.480Z,3.00
2023-04-09T23:48:35.578Z,2.78
2023-04-09T23:51:20.794Z,3.45
2023-04-09T23:54:05.945Z,3.00
2023-04-09T23:56:50.790Z,3.50
2023-04-09T23:59:36.364Z,3.50
